createdAt,value
2018-07-09T00:00:43.890Z,97090.00
2018-07-09T00:03:13.127Z,97077.00
2018-07-09T00:05:45.053Z,97081.00
2018-07-09T00:08:13.626Z,97076.00
2018-07-09T00:11:06.984Z,97077.00
2018-07-09T00:13:36.169Z,97069.00
2018-07-09T00:16:04.272Z,97069.00
2018-07-09T00:18:32.269Z,97066.00
2018-07-09T00:21:00.211Z,97070.00
2018-07-09T00:23:28.184Z,97070.00
2018-07-09T00:25:56.700Z,97067.00
2018-07-09T00:28:25.070Z,97064.00
2018-07-09T00:30:53.049Z,97074.00
2018-07-09T00:33:21.321Z,97072.00
2018-07-09T00:35:49.344Z,97071.00
2018-07-09T00:38:17.866Z,97067.00
2018-07-09T00:40:45.869Z,97070.00
2018-07-09T00:43:13.877Z,97066.00
2018-07-09T00:45:41.804Z,97058.00
2018-07-09T00:48:09.764Z,97068.00
2018-07-09T00:50:37.688Z,97059.00
2018-07-09T00:53:05.689Z,97060.00
2018-07-09T00:55:33.864Z,97063.00
2018-07-09T00:58:01.820Z,97060.00
2018-07-09T01:00:29.808Z,97048.00
2018-07-09T01:02:57.757Z,97049.00
2018-07-09T01:05:25.700Z,97046.00
2018-07-09T01:07:53.660Z,97053.00
2018-07-09T01:10:21.598Z,97046.00
2018-07-09T01:12:49.567Z,97052.00
2018-07-09T01:15:17.497Z,97045.00
2018-07-09T01:17:45.475Z,97042.00
2018-07-09T01:20:13.433Z,97045.00
2018-07-09T01:22:41.380Z,97043.00
2018-07-09T01:25:09.388Z,97039.00
2018-07-09T01:27:37.327Z,97042.00
2018-07-09T01:30:13.830Z,97036.00
2018-07-09T01:32:41.831Z,97036.00
2018-07-09T01:35:10.766Z,97036.00
2018-07-09T01:37:39.476Z,97029.00
2018-07-09T01:40:07.660Z,97033.00
2018-07-09T01:42:35.826Z,97028.00
2018-07-09T01:45:03.785Z,97028.00
2018-07-09T01:47:31.737Z,97032.00
2018-07-09T01:50:00.047Z,97023.00
2018-07-09T01:52:28.370Z,97018.00
2018-07-09T01:54:56.361Z,97017.00
2018-07-09T01:57:24.290Z,97016.00
2018-07-09T01:59:52.424Z,97014.00
2018-07-09T02:02:20.371Z,97014.00
2018-07-09T02:04:48.325Z,97015.00
2018-07-09T02:07:16.353Z,97012.00
2018-07-09T02:09:44.277Z,97011.00
2018-07-09T02:12:12.206Z,97008.00
2018-07-09T02:14:40.180Z,97005.00
2018-07-09T02:17:08.137Z,97002.00
2018-07-09T02:19:36.153Z,97005.00
2018-07-09T02:22:04.102Z,97007.00
2018-07-09T02:24:32.045Z,96998.00
2018-07-09T02:29:27.956Z,97000.00
2018-07-09T02:31:55.911Z,96996.00
2018-07-09T02:34:23.880Z,96996.00
2018-07-09T02:36:51.876Z,97000.00
2018-07-09T02:39:19.844Z,97002.00
2018-07-09T02:41:47.876Z,96993.00
2018-07-09T02:44:15.823Z,96993.00
2018-07-09T02:46:43.769Z,97002.00
2018-07-09T02:49:11.832Z,96998.00
2018-07-09T02:51:39.710Z,97002.00
2018-07-09T02:54:07.645Z,97006.00
2018-07-09T02:56:35.655Z,96998.00
2018-07-09T02:59:03.617Z,96996.00
2018-07-09T03:01:31.577Z,96998.00
2018-07-09T03:03:59.561Z,96996.00
2018-07-09T03:06:27.481Z,97002.00
2018-07-09T03:08:55.396Z,97008.00
2018-07-09T03:11:23.369Z,96991.00
2018-07-09T03:13:51.288Z,96993.00
2018-07-09T03:16:19.243Z,96997.00
2018-07-09T03:18:47.228Z,96997.00
2018-07-09T03:21:15.180Z,96999.00
2018-07-09T03:23:43.179Z,96997.00
2018-07-09T03:26:11.149Z,96998.00
2018-07-09T03:28:39.080Z,97005.00
2018-07-09T03:31:07.072Z,97003.00
2018-07-09T03:33:35.020Z,97002.00
2018-07-09T03:36:03.061Z,97002.00
2018-07-09T03:38:31.032Z,96999.00
2018-07-09T03:40:58.968Z,96990.00
2018-07-09T03:43:26.968Z,96993.00
2018-07-09T03:45:54.949Z,96993.00
2018-07-09T03:48:22.869Z,97002.00
2018-07-09T03:50:50.895Z,97005.00
2018-07-09T03:53:18.824Z,97009.00
2018-07-09T03:55:46.812Z,97010.00
2018-07-09T03:58:14.752Z,97011.00
2018-07-09T04:00:42.703Z,97013.00
2018-07-09T04:03:10.746Z,97008.00
2018-07-09T04:05:38.692Z,97005.00
2018-07-09T04:08:06.666Z,96998.00
2018-07-09T04:10:34.609Z,97006.00
2018-07-09T04:13:02.554Z,97005.00
2018-07-09T04:15:30.535Z,97004.00
2018-07-09T04:17:58.481Z,97009.00
2018-07-09T04:20:26.442Z,97012.00
2018-07-09T04:22:54.372Z,97012.00
2018-07-09T04:25:22.465Z,97010.00
2018-07-09T04:27:50.420Z,97003.00
2018-07-09T04:30:18.407Z,97002.00
2018-07-09T04:32:46.367Z,97003.00
2018-07-09T04:35:14.324Z,97006.00
2018-07-09T04:37:42.334Z,97003.00
2018-07-09T04:40:10.277Z,97007.00
2018-07-09T04:42:38.234Z,96999.00
2018-07-09T04:45:06.218Z,97004.00
2018-07-09T04:47:34.160Z,96998.00
2018-07-09T04:50:02.612Z,96990.00
2018-07-09T04:52:30.542Z,96993.00
2018-07-09T04:54:58.508Z,97007.00
2018-07-09T04:57:26.454Z,97002.00
2018-07-09T04:59:54.395Z,97005.00
2018-07-09T05:02:22.360Z,97004.00
2018-07-09T05:04:50.302Z,97008.00
2018-07-09T05:07:18.321Z,97007.00
2018-07-09T05:09:46.280Z,97000.00
2018-07-09T05:12:14.231Z,97013.00
2018-07-09T05:14:42.213Z,97000.00
2018-07-09T05:17:10.160Z,96996.00
2018-07-09T05:19:38.119Z,97001.00
2018-07-09T05:22:06.093Z,97005.00
2018-07-09T05:24:34.064Z,97004.00
2018-07-09T05:27:02.005Z,96998.00
2018-07-09T05:29:29.967Z,97004.00
2018-07-09T05:31:57.901Z,97002.00
2018-07-09T05:34:25.882Z,96999.00
2018-07-09T05:36:53.845Z,97006.00
2018-07-09T05:39:21.891Z,96996.00
2018-07-09T05:41:49.881Z,96990.00
2018-07-09T05:44:17.976Z,96989.00
2018-07-09T05:46:46.089Z,96987.00
2018-07-09T05:49:14.015Z,96996.00
2018-07-09T05:51:41.983Z,96998.00
2018-07-09T05:54:09.942Z,97005.00
2018-07-09T05:56:37.976Z,97006.00
2018-07-09T05:59:05.948Z,96996.00
2018-07-09T06:01:33.890Z,97002.00
2018-07-09T06:04:01.850Z,97001.00
2018-07-09T06:06:29.781Z,96999.00
2018-07-09T06:08:57.712Z,96999.00
2018-07-09T06:11:25.687Z,97001.00
2018-07-09T06:13:54.042Z,97001.00
2018-07-09T06:16:22.012Z,96997.00
2018-07-09T06:18:49.941Z,96990.00
2018-07-09T06:21:17.903Z,96998.00
2018-07-09T06:23:45.881Z,96996.00
2018-07-09T06:26:13.846Z,96989.00
2018-07-09T06:28:41.848Z,96986.00
2018-07-09T06:31:09.780Z,96992.00
2018-07-09T06:33:37.744Z,96986.00
2018-07-09T06:36:05.736Z,96978.00
2018-07-09T06:38:33.696Z,96991.00
2018-07-09T06:41:01.654Z,96984.00
2018-07-09T06:43:29.591Z,96986.00
2018-07-09T06:45:57.564Z,96991.00
2018-07-09T06:48:25.496Z,96988.00
2018-07-09T06:50:53.423Z,96991.00
2018-07-09T06:53:21.382Z,96993.00
2018-07-09T06:55:49.344Z,96996.00
2018-07-09T06:58:17.313Z,96997.00
2018-07-09T07:00:45.274Z,97004.00
2018-07-09T07:03:13.285Z,97010.00
2018-07-09T07:05:41.249Z,97007.00
2018-07-09T07:08:09.203Z,97011.00
2018-07-09T07:10:37.173Z,96992.00
2018-07-09T07:13:05.137Z,96993.00
2018-07-09T07:15:33.116Z,96986.00
2018-07-09T07:18:01.213Z,96993.00
2018-07-09T07:20:29.136Z,96997.00
2018-07-09T07:22:57.099Z,96997.00
2018-07-09T07:25:25.450Z,96999.00
2018-07-09T07:27:53.489Z,96988.00
2018-07-09T07:30:21.410Z,96991.00
2018-07-09T07:32:49.421Z,96993.00
2018-07-09T07:35:17.483Z,96991.00
2018-07-09T07:37:45.413Z,96985.00
2018-07-09T07:40:13.420Z,96992.00
2018-07-09T07:42:41.360Z,96983.00
2018-07-09T07:45:09.326Z,96999.00
2018-07-09T07:47:37.313Z,96987.00
2018-07-09T07:50:05.317Z,96985.00
2018-07-09T07:52:33.291Z,96987.00
2018-07-09T07:55:01.234Z,96980.00
2018-07-09T07:57:29.157Z,96982.00
2018-07-09T07:59:57.112Z,96977.00
2018-07-09T08:02:25.039Z,96984.00
2018-07-09T08:04:53.177Z,96983.00
2018-07-09T08:07:21.104Z,96987.00
2018-07-09T08:09:49.022Z,96978.00
2018-07-09T08:13:00.558Z,96987.00
2018-07-09T08:14:45.056Z,96987.00
2018-07-09T08:17:12.961Z,96975.00
2018-07-09T08:19:40.886Z,96974.00
2018-07-09T08:22:08.856Z,96975.00
2018-07-09T08:24:36.809Z,96977.00
2018-07-09T08:27:04.793Z,96970.00
2018-07-09T08:29:32.761Z,96963.00
2018-07-09T08:32:00.677Z,96965.00
2018-07-09T08:34:28.657Z,96968.00
2018-07-09T08:36:56.626Z,96965.00
2018-07-09T08:39:24.565Z,96962.00
2018-07-09T08:41:52.484Z,96952.00
2018-07-09T08:44:20.453Z,96957.00
2018-07-09T08:46:48.393Z,96958.00
2018-07-09T08:49:16.318Z,96951.00
2018-07-09T08:51:44.324Z,96950.00
2018-07-09T08:54:12.259Z,96947.00
2018-07-09T08:56:40.261Z,96946.00
2018-07-09T08:59:08.276Z,96948.00
2018-07-09T09:01:36.205Z,96943.00
2018-07-09T09:04:04.210Z,96942.00
2018-07-09T09:06:32.208Z,96952.00
2018-07-09T09:09:00.189Z,96958.00
2018-07-09T09:11:28.121Z,96945.00
2018-07-09T09:13:56.093Z,96945.00
2018-07-09T09:16:24.053Z,96955.00
2018-07-09T09:18:52.322Z,96951.00
2018-07-09T09:21:20.282Z,96948.00
2018-07-09T09:23:48.237Z,96946.00
2018-07-09T09:26:16.253Z,96950.00
2018-07-09T09:28:44.202Z,96948.00
2018-07-09T09:31:12.205Z,96949.00
2018-07-09T09:33:40.116Z,96954.00
2018-07-09T09:36:08.042Z,96954.00
2018-07-09T09:38:35.960Z,96946.00
2018-07-09T09:41:03.918Z,96939.00
2018-07-09T09:43:31.832Z,96940.00
2018-07-09T09:45:59.777Z,96941.00
2018-07-09T09:48:27.716Z,96942.00
2018-07-09T09:50:55.636Z,96944.00
2018-07-09T09:53:23.580Z,96948.00
2018-07-09T09:55:51.498Z,96943.00
2018-07-09T09:58:19.470Z,96941.00
2018-07-09T10:00:51.147Z,96940.00
2018-07-09T10:03:19.171Z,96934.00
2018-07-09T10:05:47.970Z,96937.00
2018-07-09T10:08:15.900Z,96940.00
2018-07-09T10:10:44.011Z,96939.00
2018-07-09T10:13:12.222Z,96929.00
2018-07-09T10:15:40.176Z,96934.00
2018-07-09T10:18:08.154Z,96937.00
2018-07-09T10:20:36.109Z,96939.00
2018-07-09T10:23:04.175Z,96937.00
2018-07-09T10:25:32.004Z,96931.00
2018-07-09T10:27:59.964Z,96936.00
2018-07-09T10:30:27.881Z,96924.00
2018-07-09T10:32:55.809Z,96923.00
2018-07-09T10:35:23.766Z,96922.00
2018-07-09T10:37:51.704Z,96923.00
2018-07-09T10:40:19.680Z,96925.00
2018-07-09T10:42:47.616Z,96918.00
2018-07-09T10:45:15.537Z,96918.00
2018-07-09T10:47:43.513Z,96908.00
2018-07-09T10:50:11.428Z,96899.00
2018-07-09T10:52:39.395Z,96900.00
2018-07-09T10:55:07.381Z,96905.00
2018-07-09T10:57:35.336Z,96908.00
2018-07-09T11:00:03.929Z,96909.00
2018-07-09T11:02:31.850Z,96900.00
2018-07-09T11:04:59.789Z,96898.00
2018-07-09T11:07:27.710Z,96892.00
2018-07-09T11:09:55.678Z,96886.00
2018-07-09T11:12:23.602Z,96894.00
2018-07-09T11:14:51.521Z,96887.00
2018-07-09T11:17:19.464Z,96873.00
2018-07-09T11:19:47.383Z,96876.00
2018-07-09T11:22:15.332Z,96872.00
2018-07-09T11:24:43.266Z,96864.00
2018-07-09T11:27:11.241Z,96877.00
2018-07-09T11:29:39.178Z,96866.00
2018-07-09T11:32:07.196Z,96859.00
2018-07-09T11:34:35.143Z,96859.00
2018-07-09T11:37:03.086Z,96861.00
2018-07-09T11:39:31.034Z,96861.00
2018-07-09T11:41:58.961Z,96858.00
2018-07-09T11:44:27.649Z,96857.00
2018-07-09T11:46:55.657Z,96850.00
2018-07-09T11:49:23.566Z,96853.00
2018-07-09T11:51:51.543Z,96855.00
2018-07-09T11:54:19.478Z,96853.00
2018-07-09T11:56:47.417Z,96856.00
2018-07-09T11:59:15.383Z,96844.00
2018-07-09T12:01:43.290Z,96854.00
2018-07-09T12:04:11.233Z,96851.00
2018-07-09T12:06:39.121Z,96846.00
2018-07-09T12:09:07.049Z,96848.00
2018-07-09T12:11:35.089Z,96843.00
2018-07-09T12:14:03.061Z,96843.00
2018-07-09T12:16:31.066Z,96837.00
2018-07-09T12:18:58.998Z,96835.00
2018-07-09T12:21:26.923Z,96831.00
2018-07-09T12:23:54.927Z,96834.00
2018-07-09T12:26:22.908Z,96835.00
2018-07-09T12:28:50.887Z,96827.00
2018-07-09T12:31:19.667Z,96833.00
2018-07-09T12:33:47.964Z,96828.00
2018-07-09T12:36:15.999Z,96823.00
2018-07-09T12:38:44.031Z,96830.00
2018-07-09T12:41:11.982Z,96820.00
2018-07-09T12:43:39.931Z,96820.00
2018-07-09T12:46:08.018Z,96822.00
2018-07-09T12:48:35.955Z,96807.00
2018-07-09T12:51:03.888Z,96817.00
2018-07-09T12:53:31.843Z,96813.00
2018-07-09T12:55:59.769Z,96813.00
2018-07-09T12:58:27.710Z,96813.00
2018-07-09T13:00:55.660Z,96811.00
2018-07-09T13:03:23.595Z,96810.00
2018-07-09T13:05:51.544Z,96812.00
2018-07-09T13:08:19.477Z,96808.00
2018-07-09T13:10:47.409Z,96804.00
2018-07-09T13:13:15.350Z,96800.00
2018-07-09T13:15:43.270Z,96801.00
2018-07-09T13:18:11.217Z,96794.00
2018-07-09T13:20:39.182Z,96786.00
2018-07-09T13:23:07.124Z,96792.00
2018-07-09T13:25:35.073Z,96779.00
2018-07-09T13:28:03.011Z,96785.00
2018-07-09T13:30:30.969Z,96780.00
2018-07-09T13:32:58.893Z,96774.00
2018-07-09T13:35:26.824Z,96778.00
2018-07-09T13:37:54.859Z,96779.00
2018-07-09T13:40:22.748Z,96765.00
2018-07-09T13:42:50.712Z,96769.00
2018-07-09T13:45:18.654Z,96763.00
2018-07-09T13:47:46.601Z,96761.00
2018-07-09T13:50:14.610Z,96764.00
2018-07-09T13:52:42.569Z,96765.00
2018-07-09T13:55:10.519Z,96759.00
2018-07-09T13:57:38.492Z,96758.00
2018-07-09T14:00:06.521Z,96760.00
2018-07-09T14:02:34.470Z,96756.00
2018-07-09T14:05:02.404Z,96761.00
2018-07-09T14:07:30.362Z,96763.00
2018-07-09T14:09:58.286Z,96756.00
2018-07-09T14:12:27.099Z,96758.00
2018-07-09T14:14:55.815Z,96754.00
2018-07-09T14:17:23.735Z,96750.00
2018-07-09T14:20:30.839Z,96742.00
2018-07-09T14:22:59.395Z,96746.00
2018-07-09T14:25:27.364Z,96744.00
2018-07-09T14:27:55.279Z,96743.00
2018-07-09T14:30:23.279Z,96744.00
2018-07-09T14:32:51.233Z,96742.00
2018-07-09T14:35:19.180Z,96748.00
2018-07-09T14:37:47.136Z,96749.00
2018-07-09T14:40:15.048Z,96746.00
2018-07-09T14:42:43.054Z,96740.00
2018-07-09T14:45:11.039Z,96731.00
2018-07-09T14:47:38.965Z,96729.00
2018-07-09T14:50:06.954Z,96584.00
2018-07-09T14:52:34.896Z,96398.00
2018-07-09T14:55:02.879Z,96397.00
2018-07-09T14:57:30.860Z,96400.00
2018-07-09T14:59:58.778Z,96402.00
2018-07-09T15:02:26.778Z,96400.00
2018-07-09T15:04:54.689Z,96398.00
2018-07-09T15:07:22.946Z,96392.00
2018-07-09T15:09:50.880Z,96389.00
2018-07-09T15:12:18.848Z,96394.00
2018-07-09T15:14:46.875Z,96379.00
2018-07-09T15:17:14.838Z,96374.00
2018-07-09T15:19:42.791Z,96530.00
2018-07-09T15:22:10.707Z,96719.00
2018-07-09T15:24:38.680Z,96717.00
2018-07-09T15:27:06.641Z,96722.00
2018-07-09T15:29:34.574Z,96716.00
2018-07-09T15:32:23.315Z,96730.00
2018-07-09T15:34:51.434Z,96732.00
2018-07-09T15:37:19.523Z,96724.00
2018-07-09T15:39:47.495Z,96728.00
2018-07-09T15:42:15.456Z,96731.00
2018-07-09T15:44:43.417Z,96728.00
2018-07-09T15:47:11.368Z,96729.00
2018-07-09T15:49:39.869Z,96728.00
2018-07-09T15:52:07.842Z,96726.00
2018-07-09T15:54:35.855Z,96718.00
2018-07-09T15:57:03.866Z,96718.00
2018-07-09T15:59:31.882Z,96711.00
2018-07-09T16:01:59.843Z,96705.00
2018-07-09T16:04:27.891Z,96713.00
2018-07-09T16:06:55.830Z,96739.00
2018-07-09T16:09:23.762Z,96711.00
2018-07-09T16:11:51.711Z,96711.00
2018-07-09T16:14:19.693Z,96709.00
2018-07-09T16:16:47.632Z,96699.00
2018-07-09T16:19:15.596Z,96701.00
2018-07-09T16:21:43.584Z,96698.00
2018-07-09T16:24:12.484Z,96699.00
2018-07-09T16:26:41.568Z,96701.00
2018-07-09T16:29:10.122Z,96705.00
2018-07-09T16:31:38.044Z,96695.00
2018-07-09T16:34:06.346Z,96701.00
2018-07-09T16:36:34.322Z,96702.00
2018-07-09T16:39:02.365Z,96694.00
2018-07-09T16:41:30.273Z,96691.00
2018-07-09T16:43:58.220Z,96687.00
2018-07-09T16:46:26.145Z,96721.00
2018-07-09T16:48:54.090Z,96745.00
2018-07-09T16:51:22.029Z,96745.00
2018-07-09T16:53:50.004Z,96681.00
2018-07-09T16:56:17.990Z,96729.00
2018-07-09T16:58:46.180Z,96704.00
2018-07-09T17:01:14.435Z,96701.00
2018-07-09T17:03:42.663Z,96706.00
2018-07-09T17:06:10.805Z,96742.00
2018-07-09T17:08:38.965Z,96734.00
2018-07-09T17:11:07.012Z,96720.00
2018-07-09T17:13:35.000Z,96742.00
2018-07-09T17:16:02.924Z,96751.00
2018-07-09T17:18:36.931Z,96745.00
2018-07-09T17:21:11.728Z,96739.00
2018-07-09T17:23:46.417Z,96717.00
2018-07-09T17:26:29.307Z,96724.00
2018-07-09T17:29:03.964Z,96735.00
2018-07-09T17:31:38.317Z,96721.00
2018-07-09T17:34:13.198Z,96705.00
2018-07-09T17:36:46.317Z,96741.00
2018-07-09T17:39:20.815Z,96735.00
2018-07-09T17:41:53.925Z,96742.00
2018-07-09T17:44:27.471Z,96734.00
2018-07-09T17:47:01.471Z,96710.00
2018-07-09T17:49:36.160Z,96705.00
2018-07-09T17:52:09.107Z,96713.00
2018-07-09T17:54:44.090Z,96739.00
2018-07-09T17:57:18.842Z,96717.00
2018-07-09T17:59:52.901Z,96712.00
2018-07-09T18:02:26.654Z,96712.00
2018-07-09T18:05:00.760Z,96720.00
2018-07-09T18:07:33.947Z,96727.00
2018-07-09T18:10:08.306Z,96727.00
2018-07-09T18:12:42.473Z,96755.00
2018-07-09T18:15:15.913Z,96748.00
2018-07-09T18:17:49.093Z,96763.00
2018-07-09T18:20:24.584Z,96775.00
2018-07-09T18:22:58.070Z,96776.00
2018-07-09T18:25:31.120Z,96775.00
2018-07-09T18:28:05.843Z,96785.00
2018-07-09T18:30:39.933Z,96777.00
2018-07-09T18:33:13.952Z,96787.00
2018-07-09T18:35:47.883Z,96777.00
2018-07-09T18:38:19.968Z,96789.00
2018-07-09T18:40:51.720Z,96778.00
2018-07-09T18:43:23.618Z,96777.00
2018-07-09T18:45:57.812Z,96778.00
2018-07-09T18:48:32.864Z,96770.00
2018-07-09T18:51:06.878Z,96775.00
2018-07-09T18:53:40.950Z,96770.00
2018-07-09T18:56:15.844Z,96775.00
2018-07-09T18:58:49.117Z,96769.00
2018-07-09T19:01:22.313Z,96774.00
2018-07-09T19:03:57.251Z,96776.00
2018-07-09T19:07:01.672Z,96775.00
2018-07-09T19:09:35.407Z,96771.00
2018-07-09T19:12:10.536Z,96773.00
2018-07-09T19:14:48.013Z,96773.00
2018-07-09T19:18:24.966Z,96771.00
2018-07-09T19:24:44.092Z,96770.00
2018-07-09T19:27:15.019Z,96775.00
2018-07-09T19:29:44.778Z,96770.00
2018-07-09T19:32:14.553Z,96777.00
2018-07-09T19:34:44.842Z,96773.00
2018-07-09T19:37:15.723Z,96780.00
2018-07-09T19:39:45.134Z,96781.00
2018-07-09T19:42:14.019Z,96785.00
2018-07-09T19:44:44.871Z,96788.00
2018-07-09T19:47:14.760Z,96789.00
2018-07-09T19:49:44.697Z,96789.00
2018-07-09T19:52:15.605Z,96790.00
2018-07-09T19:54:45.910Z,96792.00
2018-07-09T19:57:16.180Z,96794.00
2018-07-09T19:59:47.034Z,96793.00
2018-07-09T20:02:17.858Z,96796.00
2018-07-09T20:04:47.909Z,96790.00
2018-07-09T20:07:18.218Z,96793.00
2018-07-09T20:10:05.615Z,96791.00
2018-07-09T20:12:52.740Z,96797.00
2018-07-09T20:15:38.733Z,96800.00
2018-07-09T20:18:08.726Z,96797.00
2018-07-09T20:20:37.347Z,96794.00
2018-07-09T20:23:07.118Z,96791.00
2018-07-09T20:25:37.438Z,96797.00
2018-07-09T20:28:08.285Z,96795.00
2018-07-09T20:30:37.474Z,96798.00
2018-07-09T20:33:04.207Z,96807.00
2018-07-09T20:35:34.053Z,96806.00
2018-07-09T20:38:02.170Z,96808.00
2018-07-09T20:40:31.408Z,96805.00
2018-07-09T20:43:01.210Z,96807.00
2018-07-09T20:45:31.899Z,96804.00
2018-07-09T20:48:01.155Z,96805.00
2018-07-09T20:50:29.996Z,96808.00
2018-07-09T20:52:59.657Z,96799.00
2018-07-09T20:55:29.437Z,96808.00
2018-07-09T20:58:01.596Z,96802.00
2018-07-09T21:00:31.524Z,96802.00
2018-07-09T21:03:00.722Z,96801.00
2018-07-09T21:05:30.991Z,96805.00
2018-07-09T21:07:58.260Z,96806.00
2018-07-09T21:10:24.806Z,96798.00
2018-07-09T21:12:58.313Z,96800.00
2018-07-09T21:15:26.101Z,96795.00
2018-07-09T21:17:52.558Z,96794.00
2018-07-09T21:20:19.529Z,96790.00
2018-07-09T21:22:46.643Z,96790.00
2018-07-09T21:25:14.318Z,96795.00
2018-07-09T21:27:41.533Z,96796.00
2018-07-09T21:30:08.076Z,96794.00
2018-07-09T21:32:34.605Z,96793.00
2018-07-09T21:35:01.171Z,96800.00
2018-07-09T21:37:28.251Z,96801.00
2018-07-09T21:39:54.836Z,96800.00
2018-07-09T21:42:21.851Z,96799.00
2018-07-09T21:44:48.375Z,96804.00
2018-07-09T21:47:14.928Z,96809.00
2018-07-09T21:49:41.443Z,96799.00
2018-07-09T21:52:07.953Z,96801.00
2018-07-09T21:54:34.493Z,96805.00
2018-07-09T21:57:01.017Z,96808.00
2018-07-09T21:59:27.568Z,96803.00
2018-07-09T22:01:54.078Z,96798.00
2018-07-09T22:04:21.045Z,96812.00
2018-07-09T22:06:47.601Z,96819.00
2018-07-09T22:09:14.109Z,96825.00
2018-07-09T22:11:40.656Z,96823.00
2018-07-09T22:14:07.161Z,96825.00
2018-07-09T22:16:33.683Z,96828.00
2018-07-09T22:19:00.682Z,96824.00
2018-07-09T22:21:27.184Z,96825.00
2018-07-09T22:23:53.729Z,96827.00
2018-07-09T22:26:20.237Z,96823.00
2018-07-09T22:28:47.248Z,96828.00
2018-07-09T22:31:15.224Z,96819.00
2018-07-09T22:33:43.164Z,96817.00
2018-07-09T22:36:11.135Z,96814.00
2018-07-09T22:38:39.104Z,96805.00
2018-07-09T22:41:07.149Z,96805.00
2018-07-09T22:44:17.074Z,96799.00
2018-07-09T22:46:45.046Z,96801.00
2018-07-09T22:49:13.019Z,96789.00
2018-07-09T22:51:40.940Z,96782.00
2018-07-09T22:54:08.920Z,96790.00
2018-07-09T22:56:36.898Z,96788.00
2018-07-09T22:59:04.840Z,96782.00
2018-07-09T23:01:32.858Z,96787.00
2018-07-09T23:04:00.815Z,96782.00
2018-07-09T23:06:28.737Z,96784.00
2018-07-09T23:10:03.301Z,96781.00
2018-07-09T23:13:18.580Z,96777.00
2018-07-09T23:16:46.771Z,96771.00
2018-07-09T23:20:07.816Z,96781.00
2018-07-09T23:22:34.366Z,96778.00
2018-07-09T23:25:00.881Z,96771.00
2018-07-09T23:27:27.389Z,96775.00
2018-07-09T23:29:53.939Z,96771.00
2018-07-09T23:32:20.448Z,96769.00
2018-07-09T23:34:47.439Z,96771.00
2018-07-09T23:37:13.985Z,96769.00
2018-07-09T23:39:40.519Z,96766.00
2018-07-09T23:42:07.123Z,96772.00
2018-07-09T23:44:34.094Z,96765.00
2018-07-09T23:47:00.597Z,96756.00
2018-07-09T23:49:27.121Z,96758.00
2018-07-09T23:51:53.674Z,96755.00
2018-07-09T23:54:20.186Z,96762.00
2018-07-09T23:58:16.777Z,96753.00
